Data for 06/16/2009

Time Sea-Level Adjusted Pressure Absolute Pressure Temperature Relative Humidity Dew Point   
(mb) (inHg) (mb) (inHg) (C) (F) (%) (C) (F)
00:05 1016 30 845 24.95 13.5 56.3 78 9.7 49.5
00:10 1016 30 845 24.95 13.7 56.6 76 9.5 49.1
00:15 1016 30 846 24.98 13.7 56.7 78 9.9 49.8
00:20 1016 30 846 24.98 13.5 56.3 79 10 50
00:25 1016 30 846 24.98 13.3 55.9 80 9.9 49.9
00:30 1016 30 845 24.95 13.4 56.1 80 10 49.9
00:35 1016 30 845 24.95 13.4 56.2 78 9.7 49.4
00:40 1016 30 845 24.95 13.5 56.2 78 9.7 49.5
00:45 1016 30 845 24.95 13.5 56.2 78 9.7 49.5
00:50 1016 30 845 24.95 13.4 56.2 78 9.7 49.4
00:55 1016 30 845 24.95 13.4 56.2 78 9.8 49.6
01:00 1016 30 845 24.95 13.3 55.9 79 9.7 49.5
01:05 1016 30 845 24.95 13.2 55.7 83 10.4 50.7
01:10 1016 30 845 24.95 12.9 55.1 84 10.3 50.5
01:15 1016 30 845 24.95 12.8 55 84 10.2 50.4
01:20 1016 30 845 24.95 12.5 54.4 86 10.2 50.4
01:25 1016 30 845 24.95 12.2 54 87 10.1 50.2
01:30 1016 30 845 24.95 12.2 54 87 10.1 50.2
01:35 1016 30 845 24.95 12.3 54.2 86 10.1 50.2
01:40 1016 30 845 24.95 12.4 54.4 86 10.1 50.2
01:45 1016 30 845 24.95 12.5 54.4 85 10.1 50.2
01:50 1016 30 845 24.95 12.6 54.6 86 10.3 50.6
01:55 1016 30 845 24.95 12.4 54.4 87 10.3 50.6
02:00 1016 30 846 24.98 12.3 54.2 88 10.3 50.6
02:05 1016 30 845 24.95 12.3 54.1 88 10.3 50.5
02:10 1016 30 846 24.98 12.2 54 87 10.2 50.4
02:15 1016 30 846 24.98 12.3 54.1 86 10 50
02:20 1016 30 846 24.98 12.3 54.1 86 10 50
02:25 1016 30 846 24.98 12.3 54.1 85 9.9 49.8
02:30 1016 30 846 24.98 12.2 53.9 85 9.7 49.5
02:35 1016 30 846 24.98 12.2 53.9 85 9.6 49.4
02:40 1016 30 846 24.98 12.2 53.9 82 9.1 48.4
02:45 1016 30 846 24.98 12.4 54.3 79 8.9 48.1
02:50 1016 30 846 24.98 12.6 54.7 79 9 48.2
02:55 1016 30 846 24.98 12.7 54.8 79 9.1 48.5
03:00 1016 30 846 24.98 12.5 54.6 82 9.5 49.1
03:05 1016 30 846 24.98 12.3 54.1 85 9.8 49.6
03:10 1016 30 846 24.98 11.9 53.4 85 9.5 49.2
03:15 1016 30 846 24.98 11.8 53.3 86 9.5 49.1
03:20 1016 30 846 24.98 11.8 53.3 86 9.5 49.1
03:25 1016 30 846 24.98 11.7 53.1 86 9.5 49.1
03:30 1016 30 846 24.98 11.6 52.9 86 9.4 48.9
03:35 1016 30 846 24.98 11.6 52.8 85 9.1 48.5
03:40 1017 30.03 846 24.98 11.7 53 84 9 48.3
03:45 1017 30.03 846 24.98 11.8 53.3 83 9 48.2
03:50 1017 30.03 846 24.98 12 53.6 82 9 48.2
03:55 1017 30.03 846 24.98 12.1 53.8 82 9.1 48.4
04:00 1017 30.03 846 24.98 12.2 53.9 81 9 48.2
04:05 1017 30.03 846 24.98 12.3 54.1 80 8.9 47.9
04:10 1017 30.03 846 24.98 12.2 54 79 8.7 47.7
04:15 1017 30.03 846 24.98 12.2 54 80 8.9 48.1
04:20 1017 30.03 846 24.98 12.1 53.8 82 9.1 48.3
04:25 1017 30.03 846 24.98 12 53.5 83 9.1 48.4
04:30 1017 30.03 846 24.98 11.8 53.3 83 9 48.2
04:35 1017 30.03 846 24.98 11.8 53.2 83 9.1 48.3
04:40 1016 30 846 24.98 11.8 53.3 83 9.1 48.4
04:45 1016 30 846 24.98 11.9 53.4 83 9.1 48.4
04:50 1017 30.03 846 24.98 11.9 53.3 83 9.1 48.4
04:55 1017 30.03 846 24.98 11.8 53.2 84 9.1 48.4
05:00 1017 30.03 846 24.98 11.7 53.1 84 9.1 48.3
05:05 1017 30.03 846 24.98 11.7 53 84 9.1 48.3
05:10 1017 30.03 846 24.98 11.5 52.7 85 9.1 48.3
05:15 1017 30.03 846 24.98 11.5 52.7 84 8.9 48
05:20 1017 30.03 846 24.98 11.7 53 83 8.9 48
05:25 1017 30.03 846 24.98 11.7 53.1 83 9 48.1
05:30 1017 30.03 846 24.98 11.8 53.2 83 9 48.1
05:35 1017 30.03 846 24.98 11.9 53.3 82 8.9 48.1
05:40 1017 30.03 846 24.98 11.8 53.3 83 9.1 48.4
05:45 1017 30.03 846 24.98 11.7 53 84 9 48.2
05:50 1017 30.03 846 24.98 11.6 52.9 84 9 48.2
05:55 1017 30.03 846 24.98 11.6 52.9 85 9.1 48.4
06:00 1017 30.03 846 24.98 11.7 53 84 9 48.3
06:05 1017 30.03 846 24.98 11.7 53.1 83 8.9 48
06:10 1017 30.03 846 24.98 11.7 53.1 83 9 48.2
06:15 1017 30.03 846 24.98 11.7 53.1 83 8.9 48.1
06:20 1017 30.03 846 24.98 11.8 53.2 83 9 48.2
06:25 1017 30.03 846 24.98 11.9 53.4 82 8.9 48.1
06:30 1017 30.03 846 24.98 12 53.5 82 8.9 48
06:35 1017 30.03 846 24.98 12 53.6 81 8.9 48
06:40 1017 30.03 846 24.98 12.3 54.1 80 9 48.1
06:45 1017 30.03 846 24.98 12.4 54.3 80 9 48.3
06:50 1017 30.03 846 24.98 12.4 54.3 80 9.1 48.4
06:55 1017 30.03 846 24.98 12.5 54.4 80 9.1 48.4
07:00 1017 30.03 846 24.98 12.5 54.6 79 9.1 48.3
07:05 1017 30.03 846 24.98 12.9 55.2 77 8.9 48.1
07:10 1017 30.03 846 24.98 13.6 56.4 75 9.2 48.6
07:15 1017 30.03 846 24.98 14.1 57.3 72 9.1 48.3
07:20 1017 30.03 846 24.98 14.3 57.8 70 9 48.3
07:25 1017 30.03 846 24.98 14.4 57.9 71 9.2 48.5
07:30 1017 30.03 846 24.98 14.6 58.3 67 8.6 47.4
07:35 1017 30.03 846 24.98 14.4 57.8 68 8.5 47.4
07:40 1017 30.03 846 24.98 14.4 58 68 8.7 47.7
07:45 1017 30.03 846 24.98 14.5 58 68 8.7 47.6
07:50 1017 30.03 846 24.98 14.5 58 68 8.8 47.8
07:55 1017 30.03 846 24.98 14.5 58.1 68 8.7 47.6
08:00 1017 30.03 846 24.98 14.3 57.7 70 8.9 48
08:05 1017 30.03 846 24.98 14.3 57.8 70 8.9 48
08:10 1017 30.03 846 24.98 14.2 57.6 70 8.9 48
08:15 1017 30.03 846 24.98 14.6 58.4 67 8.7 47.7
08:20 1017 30.03 846 24.98 14.8 58.6 67 8.7 47.7
08:25 1017 30.03 846 24.98 15 59 65 8.6 47.4
08:30 1017 30.03 846 24.98 15.1 59.1 66 8.8 47.9
08:35 1017 30.03 846 24.98 15.2 59.4 65 8.7 47.7
08:40 1017 30.03 847 25.01 15.6 60 64 8.8 47.9
08:45 1017 30.03 847 25.01 15.2 59.4 67 9.1 48.5
08:50 1017 30.03 847 25.01 15 59 66 8.9 47.9
08:55 1017 30.03 847 25.01 15.2 59.3 64 8.4 47.1
09:00 1018 30.06 847 25.01 15.4 59.8 63 8.5 47.4
09:05 1018 30.06 847 25.01 15.5 59.9 64 8.7 47.7
09:10 1018 30.06 847 25.01 15.5 60 64 8.8 47.8
09:15 1018 30.06 847 25.01 15.6 60.2 63 8.6 47.5
09:20 1018 30.06 847 25.01 15.8 60.4 61 8.4 47.2
09:25 1018 30.06 847 25.01 16 60.8 61 8.5 47.3
09:30 1018 30.06 847 25.01 16.4 61.4 59 8.4 47.1
09:35 1018 30.06 847 25.01 16.5 61.7 58 8.3 47
09:40 1018 30.06 847 25.01 16.8 62.2 58 8.5 47.3
09:45 1018 30.06 847 25.01 17.2 63 55 8.3 46.9
09:50 1018 30.06 847 25.01 17.6 63.7 54 8.3 46.9
09:55 1018 30.06 847 25.01 17.6 63.7 55 8.5 47.3
10:00 1018 30.06 847 25.01 17.4 63.3 55 8.5 47.3
10:05 1018 30.06 847 25.01 18.1 64.5 54 8.6 47.5
10:10 1018 30.06 847 25.01 17.5 63.5 57 9.1 48.4
10:15 1018 30.06 847 25.01 17.2 63 55 8.3 47
10:20 1018 30.06 847 25.01 17 62.6 55 7.9 46.3
10:25 1018 30.06 847 25.01 17.3 63.1 53 7.8 46.1
10:30 1018 30.06 847 25.01 17.5 63.5 57 8.9 48
10:35 1017 30.03 847 25.01 17.6 63.7 56 8.8 47.9
10:40 1017 30.03 847 25.01 17.8 64 54 8.4 47.1
10:45 1017 30.03 847 25.01 18.7 65.6 52 8.6 47.6
10:50 1017 30.03 847 25.01 17.8 64.1 57 9.2 48.6
10:55 1017 30.03 846 24.98 16.7 62.1 59 8.7 47.7
11:00 1017 30.03 846 24.98 17.5 63.5 54 8.3 46.9
11:05 1017 30.03 846 24.98 18 64.3 54 8.7 47.7
11:10 1017 30.03 847 25.01 18.1 64.6 53 8.5 47.3
11:15 1017 30.03 847 25.01 18.3 64.9 53 8.7 47.7
11:20 1017 30.03 846 24.98 17.5 63.4 55 8.3 47
11:25 1017 30.03 846 24.98 17.4 63.3 57 8.8 47.9
11:30 1017 30.03 846 24.98 17.3 63.2 57 8.7 47.7
11:35 1017 30.03 846 24.98 17.3 63.1 57 8.7 47.6
11:40 1017 30.03 846 24.98 17.6 63.7 56 8.8 47.8
11:45 1017 30.03 846 24.98 17.7 63.8 54 8.5 47.2
11:50 1017 30.03 846 24.98 18.3 64.9 50 7.9 46.1
11:55 1017 30.03 846 24.98 19.2 66.5 49 8.2 46.8
12:00 1017 30.03 846 24.98 19 66.1 52 9.1 48.4
12:05 1017 30.03 846 24.98 18.6 65.4 52 8.6 47.5
12:10 1017 30.03 846 24.98 19.3 66.8 50 8.8 47.8
12:15 1017 30.03 846 24.98 19.3 66.8 48 8.2 46.8
12:20 1017 30.03 846 24.98 19.3 66.8 50 8.7 47.6
12:25 1017 30.03 846 24.98 19.4 67 48 8.3 47
12:30 1017 30.03 846 24.98 19.6 67.4 48 8.4 47
12:35 1017 30.03 846 24.98 19.9 67.8 46 8.2 46.7
12:40 1017 30.03 846 24.98 19.9 67.7 49 8.9 48
12:45 1017 30.03 846 24.98 19 66.2 49 8.3 46.9
12:50 1017 30.03 846 24.98 18.5 65.4 48 7.5 45.6
12:55 1017 30.03 846 24.98 19.7 67.4 46 7.7 45.9
13:00 1017 30.03 846 24.98 19.1 66.4 46 7.3 45.1
13:05 1017 30.03 846 24.98 19.9 67.9 43 7.1 44.7
13:10 1017 30.03 846 24.98 20.2 68.4 43 7.2 45
13:15 1017 30.03 846 24.98 20 68.1 42 7 44.5
13:20 1017 30.03 846 24.98 19.9 67.8 47 8.3 46.9
13:25 1017 30.03 846 24.98 20.4 68.7 41 7 44.6
13:30 1017 30.03 846 24.98 21.2 70.2 40 7.1 44.9
13:35 1017 30.03 846 24.98 21.1 70 40 7.3 45.1
13:40 1017 30.03 846 24.98 21 69.8 43 8.1 46.6
13:45 1017 30.03 846 24.98 20.5 68.9 44 7.8 46.1
13:50 1017 30.03 846 24.98 19.5 67.1 45 7.4 45.4
13:55 1017 30.03 846 24.98 19 66.1 53 9.3 48.7
14:00 1017 30.03 846 24.98 17.7 63.8 59 9.6 49.4
14:05 1017 30.03 846 24.98 16.8 62.2 61 9.4 48.9
14:10 1017 30.03 846 24.98 16.5 61.7 59 8.5 47.3
14:15 1016 30 846 24.98 16.6 61.9 59 8.6 47.5
14:20 1016 30 846 24.98 16.9 62.3 60 9.1 48.5
14:25 1016 30 846 24.98 16.8 62.3 58 8.6 47.4
14:30 1016 30 846 24.98 17.1 62.7 57 8.5 47.3
14:35 1016 30 846 24.98 17.2 63 55 8.3 47
14:40 1016 30 846 24.98 17.6 63.6 53 8 46.4
14:45 1016 30 845 24.95 17.9 64.2 51 7.8 46
14:50 1016 30 845 24.95 18.4 65.1 48 7.4 45.4
14:55 1016 30 845 24.95 18.3 64.9 49 7.5 45.4
15:00 1016 30 845 24.95 18.4 65.1 47 7 44.7
15:05 1016 30 845 24.95 18.5 65.2 47 7 44.5
15:10 1016 30 845 24.95 18.2 64.7 47 6.9 44.4
15:15 1016 30 845 24.95 18.8 65.9 46 7.1 44.8
15:20 1016 30 845 24.95 19.7 67.5 44 7.3 45.2
15:25 1016 30 845 24.95 20.1 68.1 41 6.6 43.9
15:30 1016 30 845 24.95 20.7 69.2 42 7.4 45.4
15:35 1016 30 845 24.95 21 69.8 37 6 42.7
15:40 1016 30 845 24.95 21.9 71.3 39 7.5 45.5
15:45 1016 30 845 24.95 20.3 68.6 51 9.9 49.8
15:50 1016 30 845 24.95 19.6 67.3 52 9.6 49.4
15:55 1016 30 845 24.95 18.9 66 49 8.2 46.7
16:00 1016 30 845 24.95 20.3 68.5 47 8.6 47.4
16:05 1016 30 845 24.95 20.5 68.9 45 8.4 47
16:10 1016 30 845 24.95 20.8 69.4 46 9 48.2
16:15 1016 30 845 24.95 19.6 67.3 47 8.1 46.5
16:20 1016 30 845 24.95 19.4 67 45 7.3 45.1
16:25 1016 30 845 24.95 20.4 68.8 43 7.5 45.4
16:30 1016 30 845 24.95 20.6 69.1 41 7 44.7
16:35 1016 30 845 24.95 21.2 70.1 42 7.9 46.3
16:40 1016 30 845 24.95 20.9 69.5 43 7.8 46.1
16:45 1016 30 845 24.95 20.9 69.5 42 7.7 45.9
16:50 1016 30 845 24.95 21.3 70.4 40 7.2 44.9
16:55 1016 30 845 24.95 21.4 70.6 38 6.7 44.1
17:00 1016 30 845 24.95 20.9 69.6 42 7.7 45.9
17:05 1015 29.97 845 24.95 21.1 70 39 6.7 44
17:10 1015 29.97 845 24.95 21.7 71.1 38 6.9 44.4
17:15 1015 29.97 845 24.95 21.3 70.4 40 7.3 45.1
17:20 1015 29.97 845 24.95 21.9 71.5 38 7.3 45.2
17:25 1015 29.97 845 24.95 21 69.8 42 7.8 46
17:30 1015 29.97 845 24.95 20.6 69 40 6.8 44.2
17:35 1015 29.97 845 24.95 20.8 69.5 41 7.3 45.1
17:40 1015 29.97 845 24.95 20.9 69.5 40 6.8 44.2
17:45 1015 29.97 845 24.95 21 69.8 39 6.9 44.4
17:50 1016 30 845 24.95 21.4 70.6 40 7.5 45.6
17:55 1016 30 845 24.95 20.9 69.7 40 6.9 44.3
18:00 1015 29.97 845 24.95 21 69.8 40 7 44.5
18:05 1015 29.97 845 24.95 21.6 70.8 36 6.1 42.9
18:10 1015 29.97 845 24.95 21.3 70.3 37 6.1 42.9
18:15 1015 29.97 845 24.95 21.7 71.1 38 6.9 44.4
18:20 1015 29.97 845 24.95 21.2 70.1 38 6.6 43.8
18:25 1015 29.97 845 24.95 20.8 69.4 37 5.8 42.4
18:30 1015 29.97 845 24.95 21.4 70.4 37 6.1 43
18:35 1015 29.97 845 24.95 21.2 70.2 38 6.4 43.5
18:40 1015 29.97 845 24.95 21 69.8 37 6 42.8
18:45 1015 29.97 845 24.95 21.2 70.2 38 6.4 43.5
18:50 1015 29.97 845 24.95 21.6 71 35 5.9 42.6
18:55 1015 29.97 845 24.95 22.2 71.9 35 6.2 43.1
19:00 1015 29.97 844 24.92 21.6 70.8 37 6.6 43.8
19:05 1015 29.97 844 24.92 21.5 70.7 36 5.9 42.7
19:10 1015 29.97 844 24.92 21.4 70.5 37 6.4 43.5
19:15 1015 29.97 844 24.92 21.2 70.2 39 6.7 44.1
19:20 1015 29.97 844 24.92 20.5 68.9 40 6.8 44.2
19:25 1015 29.97 845 24.95 20.3 68.5 39 6.1 42.9
19:30 1015 29.97 845 24.95 20.1 68.2 41 6.7 44
19:35 1015 29.97 845 24.95 19.8 67.6 42 6.6 43.9
19:40 1015 29.97 844 24.92 19.8 67.6 42 6.5 43.7
19:45 1015 29.97 845 24.95 19.8 67.7 41 6.3 43.3
19:50 1015 29.97 845 24.95 20 67.9 40 6.3 43.3
19:55 1015 29.97 845 24.95 19.9 67.9 41 6.4 43.5
20:00 1015 29.97 844 24.92 20.1 68.1 41 6.6 43.8
20:05 1015 29.97 844 24.92 20 68 41 6.5 43.7
20:10 1015 29.97 844 24.92 19.9 67.7 42 6.6 43.9
20:15 1015 29.97 844 24.92 19.8 67.6 41 6.2 43.2
20:20 1015 29.97 844 24.92 19.7 67.4 41 6.1 43
20:25 1015 29.97 844 24.92 19.5 67.2 41 6.1 43
20:30 1015 29.97 844 24.92 19.5 67 41 6.1 43
20:35 1015 29.97 844 24.92 19.4 66.9 42 6.2 43.1
20:40 1015 29.97 844 24.92 19.4 66.9 42 6.3 43.4
20:45 1015 29.97 844 24.92 19.2 66.6 42 6.2 43.2
20:50 1015 29.97 844 24.92 19.1 66.4 42 6.2 43.1
20:55 1015 29.97 844 24.92 19.1 66.3 42 6.1 43
21:00 1015 29.97 844 24.92 19 66.1 44 6.5 43.6
21:05 1015 29.97 844 24.92 18.9 66 43 6.1 43.1
21:10 1015 29.97 844 24.92 18.8 65.8 45 6.6 43.9
21:15 1015 29.97 844 24.92 18.7 65.7 49 8 46.5
21:20 1015 29.97 844 24.92 18.5 65.2 50 7.9 46.2
21:25 1015 29.97 844 24.92 18 64.5 50 7.5 45.5
21:30 1015 29.97 844 24.92 17.7 63.9 51 7.4 45.4
21:35 1015 29.97 844 24.92 17.4 63.2 55 8.4 47.1
21:40 1015 29.97 844 24.92 17.2 62.9 53 7.7 45.9
21:45 1015 29.97 844 24.92 17.1 62.8 57 8.7 47.6
21:50 1015 29.97 845 24.95 16.9 62.5 57 8.4 47.1
21:55 1015 29.97 845 24.95 16.8 62.2 60 9.1 48.4
22:00 1015 29.97 845 24.95 16.7 62 62 9.3 48.8
22:05 1015 29.97 845 24.95 16.3 61.3 64 9.5 49
22:10 1016 30 845 24.95 15.9 60.7 65 9.5 49.1
22:15 1016 30 845 24.95 15.7 60.2 66 9.5 49.1
22:20 1016 30 845 24.95 15.5 59.9 70 10.2 50.3
22:25 1016 30 845 24.95 15.3 59.5 68 9.5 49.1
22:30 1016 30 845 24.95 15.2 59.3 68 9.4 48.9
22:35 1016 30 845 24.95 15.3 59.5 66 9 48.2
22:40 1016 30 845 24.95 15.1 59.1 68 9.2 48.6
22:45 1016 30 845 24.95 15 59 68 9.2 48.5
22:50 1016 30 845 24.95 15.1 59.2 66 8.9 48.1
22:55 1016 30 845 24.95 15 58.9 68 9.1 48.4
23:00 1016 30 845 24.95 14.9 58.8 66 8.6 47.5
23:05 1016 30 845 24.95 14.9 58.7 67 8.9 48
23:10 1016 30 845 24.95 14.8 58.6 65 8.4 47.1
23:15 1016 30 845 24.95 14.9 58.8 67 9 48.2
23:20 1016 30 845 24.95 14.7 58.5 68 8.9 48
23:25 1016 30 845 24.95 14.6 58.2 68 8.8 47.8
23:30 1016 30 845 24.95 14.4 58 69 8.8 47.8
23:35 1016 30 845 24.95 14.3 57.7 69 8.8 47.8
23:40 1016 30 845 24.95 14.3 57.7 67 8.2 46.8
23:45 1016 30 845 24.95 14.4 57.8 68 8.5 47.3
23:50 1016 30 845 24.95 14.2 57.5 68 8.5 47.3
23:55 1016 30 845 24.95 14 57.1 69 8.3 47
24:00 1016 30 845 24.95 14 57.3 68 8.3 46.9